Time;durP1;ratioP1;P1;durP2;ratioP2;P2;SDS_P1;SDS_P2;PMS_P1;PMS_P2;Temp;Humidity;BMP_temperature;BMP_pressure;BME280_temperature;BME280_humidity;BME280_pressure;Samples;Min_cycle;Max_cycle;Signal;HPM_P1;HPM_P2
2023/06/14 00:02:24;;;;;;;;;;;;;;;11.84;63.02;96766.53;5026747;28;19921;-61
2023/06/14 00:04:51;;;;;;;;;;;;;;;11.79;63.26;96765.75;5034382;28;19963;-62
2023/06/14 00:07:18;;;;;;;;;;;;;;;11.87;63.42;96772.50;5029665;28;19929;-61
2023/06/14 00:09:45;;;;;;;;;;;;;;;11.67;63.98;96766.03;5040181;28;19967;-61
2023/06/14 00:12:11;;;;;;;;;;;;;;;11.11;67.58;96767.69;5034852;28;19921;-62
2023/06/14 00:14:38;;;;;;;;;;;;;;;11.27;66.15;96772.03;5035134;28;19925;-62
2023/06/14 00:17:04;;;;;;;;;;;;;;;11.70;63.81;96768.22;5032387;28;19921;-61
2023/06/14 00:19:35;;;;;;;;;;;;;;;11.60;64.49;96763.59;5037324;28;19924;-61
2023/06/14 00:22:01;;;;;;;;;;;;;;;11.47;65.55;96767.72;5029628;28;20251;-61
2023/06/14 00:24:28;;;;;;;;;;;;;;;11.40;65.80;96759.84;5037013;28;20391;-61
2023/06/14 00:26:55;;;;;;;;;;;;;;;11.43;65.57;96758.50;5031552;28;20019;-62
2023/06/14 00:29:21;;;;;;;;;;;;;;;11.52;64.70;96758.75;5035402;28;19920;-62
2023/06/14 00:31:48;;;;;;;;;;;;;;;11.61;64.19;96754.38;5040720;28;20404;-61
2023/06/14 00:34:14;;;;;;;;;;;;;;;11.61;64.65;96765.22;5037899;28;20414;-61
2023/06/14 00:36:41;;;;;;;;;;;;;;;11.52;65.31;96764.16;5035651;28;19975;-61
2023/06/14 00:39:09;;;;;;;;;;;;;;;11.03;67.65;96767.16;5033402;28;19925;-62
2023/06/14 00:41:35;;;;;;;;;;;;;;;10.70;69.41;96772.00;5030059;28;19928;-62
2023/06/14 00:44:03;;;;;;;;;;;;;;;10.58;70.12;96768.72;5031829;28;19927;-62
2023/06/14 00:46:29;;;;;;;;;;;;;;;10.58;69.90;96772.22;5030954;28;19967;-61
2023/06/14 00:48:57;;;;;;;;;;;;;;;10.65;69.67;96767.38;5034472;28;19929;-61
2023/06/14 00:51:23;;;;;;;;;;;;;;;10.76;69.03;96770.91;5030281;28;20018;-62
2023/06/14 00:53:50;;;;;;;;;;;;;;;10.81;68.72;96772.81;5028451;28;19929;-62
2023/06/14 00:56:20;;;;;;;;;;;;;;;10.74;69.03;96770.38;5033802;28;20296;-61
2023/06/14 00:58:50;;;;;;;;;;;;;;;10.86;69.12;96772.00;5030330;28;19921;-61
2023/06/14 01:01:17;;;;;;;;;;;;;;;10.76;69.29;96770.13;5036005;28;19921;-62
2023/06/14 01:03:47;;;;;;;;;;;;;;;10.85;68.61;96778.50;5032785;28;20299;-61
2023/06/14 01:06:32;;;;;;;;;;;;;;;10.92;68.61;96776.38;5034391;28;20391;-63
2023/06/14 01:09:17;;;;;;;;;;;;;;;10.87;69.15;96765.53;5038151;28;19928;-62
2023/06/14 01:11:50;;;;;;;;;;;;;;;10.66;69.72;96773.59;5030299;28;20029;-61
2023/06/14 01:14:17;;;;;;;;;;;;;;;10.80;68.98;96768.50;5036330;28;19921;-62
2023/06/14 01:16:46;;;;;;;;;;;;;;;10.88;69.13;96772.56;5032946;28;19921;-62
2023/06/14 01:19:14;;;;;;;;;;;;;;;10.82;69.01;96779.88;5035811;28;19951;-61
2023/06/14 01:21:41;;;;;;;;;;;;;;;10.82;69.17;96779.88;5027050;28;19949;-62
2023/06/14 01:24:09;;;;;;;;;;;;;;;10.95;69.08;96781.25;5035853;28;19921;-62
2023/06/14 01:26:37;;;;;;;;;;;;;;;10.88;69.13;96775.28;5030956;28;20300;-62
2023/06/14 01:29:04;;;;;;;;;;;;;;;10.76;70.07;96775.53;5038875;28;20398;-61
2023/06/14 01:31:41;;;;;;;;;;;;;;;10.93;68.60;96775.28;5033725;28;20438;-61
2023/06/14 01:34:08;;;;;;;;;;;;;;;10.61;70.87;96776.31;5031647;28;19959;-61
2023/06/14 01:36:36;;;;;;;;;;;;;;;10.33;72.59;96772.94;5030770;28;20369;-63
2023/06/14 01:39:04;;;;;;;5.80;3.83;;;;;;;10.31;73.02;96783.22;5036561;28;19921;-62
2023/06/14 01:41:31;;;;;;;8.90;3.63;;;;;;;10.09;73.82;96781.47;5031859;28;20095;-62
2023/06/14 01:43:58;;;;;;;6.18;4.07;;;;;;;9.82;75.48;96779.72;5029386;28;20045;-61
2023/06/14 01:46:25;;;;;;;6.53;4.18;;;;;;;9.55;77.45;96780.66;5027084;28;20090;-61
2023/06/14 01:48:53;;;;;;;5.95;4.00;;;;;;;9.52;77.29;96778.47;5031527;28;20257;-61
2023/06/14 01:51:20;;;;;;;6.75;3.83;;;;;;;9.64;77.01;96770.97;5027809;28;20045;-62
2023/06/14 01:53:48;;;;;;;7.75;3.75;;;;;;;9.67;77.50;96786.69;5026613;28;20068;-61
2023/06/14 01:56:15;;;;;;;7.13;3.83;;;;;;;9.72;76.81;96788.59;5030405;28;20760;-62
2023/06/14 01:58:41;;;;;;;6.68;3.65;;;;;;;9.95;75.96;96784.66;5027840;28;20424;-62
2023/06/14 02:01:09;;;;;;;6.13;4.00;;;;;;;9.88;76.37;96778.69;5032821;28;20224;-61
2023/06/14 02:03:37;;;;;;;5.70;3.92;;;;;;;9.95;75.84;96784.66;5033438;28;20575;-61
2023/06/14 02:06:04;;;;;;;5.95;4.05;;;;;;;10.06;75.67;96776.63;5029530;28;20632;-60
2023/06/14 02:08:32;;;;;;;5.93;3.33;;;;;;;10.10;75.12;96780.44;5025170;28;20034;-61
2023/06/14 02:10:59;;;;;;;6.40;3.40;;;;;;;10.18;74.80;96781.81;5033399;28;20502;-62
2023/06/14 02:13:26;;;;;;;6.95;3.97;;;;;;;10.24;74.14;96780.72;5037898;28;20298;-61
2023/06/14 02:15:54;;;;;;;6.78;3.88;;;;;;;10.41;73.33;96777.84;5035698;28;20049;-62
2023/06/14 02:18:21;;;;;;;7.85;3.85;;;;;;;10.39;73.35;96783.50;5031858;28;20420;-61
2023/06/14 02:20:47;;;;;;;8.30;4.00;;;;;;;10.44;73.67;96785.47;5027078;28;20407;-61
2023/06/14 02:23:14;;;;;;;7.75;4.05;;;;;;;10.51;73.95;96783.31;5029435;28;20088;-61
2023/06/14 02:25:42;;;;;;;7.45;4.15;;;;;;;10.54;73.40;96781.94;5032518;28;20045;-61
2023/06/14 02:28:09;;;;;;;6.90;4.20;;;;;;;10.36;73.80;96780.53;5024980;28;20053;-62
2023/06/14 02:30:38;;;;;;;9.00;4.20;;;;;;;9.83;76.97;96782.16;5033346;28;20466;-61
2023/06/14 02:33:05;;;;;;;8.90;4.00;;;;;;;10.10;75.25;96789.34;5034969;28;20095;-61
2023/06/14 02:35:31;;;;;;;5.32;3.55;;;;;;;10.20;74.78;96785.03;5033208;28;20325;-61
2023/06/14 02:37:58;;;;;;;6.50;4.05;;;;;;;10.18;74.98;96782.63;5031077;28;20312;-61
2023/06/14 02:40:25;;;;;;;6.15;4.22;;;;;;;10.35;73.85;96778.88;5025891;28;20037;-61
2023/06/14 02:42:51;;;;;;;8.13;4.40;;;;;;;10.15;75.14;96785.84;5028116;28;20046;-61
2023/06/14 02:45:18;;;;;;;7.68;3.97;;;;;;;10.07;75.43;96775.53;5033377;28;20124;-61
2023/06/14 02:47:46;;;;;;;8.57;4.18;;;;;;;9.84;77.27;96780.28;5029669;28;20448;-61
2023/06/14 02:50:13;;;;;;;6.63;4.32;;;;;;;9.84;76.65;96781.09;5036572;28;20325;-62
2023/06/14 02:52:41;;;;;;;5.50;3.70;;;;;;;10.02;75.69;96784.44;5036684;28;20148;-61
2023/06/14 02:55:09;;;;;;;6.53;4.32;;;;;;;9.98;76.02;96786.03;5030228;28;20064;-61
2023/06/14 02:57:36;;;;;;;8.95;4.97;;;;;;;10.12;75.40;96789.06;5028191;28;20401;-61
2023/06/14 03:00:03;;;;;;;6.68;4.10;;;;;;;10.19;74.93;96786.13;5028958;28;20128;-61
2023/06/14 03:02:33;;;;;;;8.90;4.65;;;;;;;10.21;74.42;96779.38;5029617;28;20102;-61
2023/06/14 03:05:01;;;;;;;7.55;4.10;;;;;;;9.91;75.88;96786.25;5035029;28;20038;-60
2023/06/14 03:07:29;;;;;;;8.52;4.88;;;;;;;9.70;77.36;96780.72;5027862;28;20072;-62
2023/06/14 03:09:57;;;;;;;7.53;4.50;;;;;;;9.76;77.35;96778.88;5029980;28;20056;-62
2023/06/14 03:12:23;;;;;;;7.95;4.43;;;;;;;9.61;78.47;96780.41;5030801;28;20511;-60
2023/06/14 03:14:51;;;;;;;6.53;4.70;;;;;;;9.46;79.09;96775.72;5028444;28;20145;-62
2023/06/14 03:17:22;;;;;;;6.80;4.30;;;;;;;9.50;78.70;96776.84;5027871;28;20045;-61
2023/06/14 03:19:48;;;;;;;6.60;4.38;;;;;;;9.60;78.56;96786.09;5031910;28;20033;-60
2023/06/14 03:22:16;;;;;;;6.63;4.30;;;;;;;9.72;78.00;96786.72;5031723;28;20044;-60
2023/06/14 03:24:44;;;;;;;8.07;4.20;;;;;;;9.79;77.32;96780.25;5027992;28;20423;-61
2023/06/14 03:27:14;;;;;;;6.80;4.10;;;;;;;9.88;77.09;96784.09;5030560;28;20084;-61
2023/06/14 03:29:43;;;;;;;6.20;4.13;;;;;;;10.01;76.66;96797.16;5027791;28;20065;-60
2023/06/14 03:32:10;;;;;;;6.30;4.35;;;;;;;9.96;76.22;96797.13;5028621;28;20075;-61
2023/06/14 03:34:39;;;;;;;6.50;4.28;;;;;;;9.85;77.19;96798.13;5032540;28;20044;-61
2023/06/14 03:37:08;;;;;;;6.28;4.10;;;;;;;9.76;77.27;96806.75;5030399;28;20045;-61
2023/06/14 03:39:35;;;;;;;6.70;4.32;;;;;;;9.77;77.10;96812.97;5028972;28;20129;-61
2023/06/14 03:42:02;;;;;;;6.68;4.32;;;;;;;9.87;76.91;96814.91;5030100;28;20359;-61
2023/06/14 03:44:30;;;;;;;8.75;4.18;;;;;;;9.85;76.97;96817.06;5026640;28;20037;-61
2023/06/14 03:46:56;;;;;;;8.70;4.78;;;;;;;9.61;78.28;96815.56;5029698;28;20537;-61
2023/06/14 03:49:25;;;;;;;6.57;3.85;;;;;;;9.53;78.99;96812.50;5029733;28;20526;-61
2023/06/14 03:51:52;;;;;;;7.63;4.00;;;;;;;9.46;79.26;96818.97;5029519;28;20175;-60
2023/06/14 03:54:22;;;;;;;7.10;4.35;;;;;;;9.52;79.52;96824.41;5029275;28;20034;-62
2023/06/14 03:56:52;;;;;;;6.57;3.83;;;;;;;9.66;78.15;96833.69;5023310;28;20041;-61
2023/06/14 03:59:19;;;;;;;6.25;4.10;;;;;;;9.53;79.04;96826.03;5028115;28;20038;-62
2023/06/14 04:01:46;;;;;;;6.93;4.60;;;;;;;9.35;80.66;96831.56;5028931;28;20080;-60
2023/06/14 04:04:18;;;;;;;7.82;4.10;;;;;;;9.55;79.76;96834.69;5026198;28;20325;-62
2023/06/14 04:06:48;;;;;;;6.72;4.35;;;;;;;9.54;79.52;96835.78;5029288;28;20137;-61
2023/06/14 04:09:14;;;;;;;6.05;4.35;;;;;;;9.55;79.47;96835.50;5030503;28;20064;-60
2023/06/14 04:11:41;;;;;;;7.50;4.25;;;;;;;9.56;79.51;96839.84;5034669;28;20234;-61
2023/06/14 04:14:07;;;;;;;7.78;4.85;;;;;;;9.62;79.33;96841.50;5026742;28;20056;-62
2023/06/14 04:16:34;;;;;;;7.93;4.40;;;;;;;9.61;79.75;96839.88;5030550;28;20467;-62
2023/06/14 04:19:01;;;;;;;9.27;4.45;;;;;;;9.62;79.44;96841.50;5031534;28;20449;-61
2023/06/14 04:21:28;;;;;;;6.13;4.57;;;;;;;9.62;80.08;96846.13;5025543;28;20037;-61
2023/06/14 04:23:57;;;;;;;8.85;5.07;;;;;;;9.72;79.52;96848.88;5034324;28;20128;-61
2023/06/14 04:26:29;;;;;;;11.27;4.70;;;;;;;9.78;79.44;96849.75;5025961;28;20128;-61
2023/06/14 04:29:01;;;;;;;8.98;4.30;;;;;;;10.01;78.71;96851.25;5033755;28;20376;-62
2023/06/14 04:31:33;;;;;;;7.90;5.20;;;;;;;10.11;78.56;96849.66;5019922;28;20041;-61
2023/06/14 04:34:00;;;;;;;7.70;4.50;;;;;;;10.21;77.73;96852.41;5031448;28;20046;-60
2023/06/14 04:36:27;;;;;;;8.43;4.20;;;;;;;10.33;77.77;96852.22;5033871;28;20117;-61
2023/06/14 04:38:54;;;;;;;7.88;4.25;;;;;;;10.38;77.02;96854.13;5028303;28;20147;-63
2023/06/14 04:41:30;;;;;;;7.57;4.72;;;;;;;10.44;77.59;96863.09;5031828;28;20044;-61
2023/06/14 04:44:01;;;;;;;7.68;4.97;;;;;;;10.52;76.97;96862.63;5029953;28;20048;-62
2023/06/14 04:46:32;;;;;;;10.35;4.30;;;;;;;10.63;77.16;96855.34;5030355;28;20049;-62
2023/06/14 04:49:02;;;;;;;6.82;4.30;;;;;;;10.70;76.86;96855.94;5033507;28;20100;-61
2023/06/14 04:51:30;;;;;;;6.63;4.22;;;;;;;10.83;77.31;96853.81;5037943;28;20033;-62
2023/06/14 04:53:58;;;;;;;8.20;4.30;;;;;;;10.95;76.93;96864.41;5031868;28;20515;-62
2023/06/14 04:56:26;;;;;;;8.55;4.53;;;;;;;11.15;75.58;96856.31;5028706;28;20099;-61
2023/06/14 04:58:53;;;;;;;7.30;5.07;;;;;;;11.17;77.11;96861.47;5026860;28;20060;-62
2023/06/14 05:01:23;;;;;;;8.32;4.60;;;;;;;11.26;76.80;96867.97;5032528;28;20049;-61
2023/06/14 05:03:50;;;;;;;8.82;4.80;;;;;;;11.49;75.63;96865.00;5031692;28;20751;-61
2023/06/14 05:06:17;;;;;;;7.40;4.22;;;;;;;11.57;75.80;96870.72;5030950;28;20048;-62
2023/06/14 05:08:45;;;;;;;8.27;4.75;;;;;;;11.71;75.74;96862.84;5035591;28;20033;-62
2023/06/14 05:11:12;;;;;;;7.82;5.25;;;;;;;11.91;74.58;96876.69;5034221;28;20507;-61
2023/06/14 05:13:40;;;;;;;8.25;4.72;;;;;;;12.00;76.29;96866.88;5030958;28;20071;-61
2023/06/14 05:16:08;;;;;;;7.57;4.88;;;;;;;12.13;75.97;96868.28;5028126;28;20052;-61
2023/06/14 05:18:35;;;;;;;9.25;5.05;;;;;;;12.33;74.91;96874.72;5033543;28;20044;-61
2023/06/14 05:21:01;;;;;;;7.05;4.30;;;;;;;12.48;74.82;96882.84;5026914;28;20041;-62
2023/06/14 05:23:28;;;;;;;8.05;5.15;;;;;;;12.65;73.22;96880.88;5029388;28;20041;-62
2023/06/14 05:25:54;;;;;;;7.35;4.50;;;;;;;12.78;72.81;96880.28;5030972;28;20399;-61
2023/06/14 05:28:21;;;;;;;8.18;4.35;;;;;;;12.97;71.31;96885.88;5030167;28;20053;-62
2023/06/14 05:30:48;;;;;;;9.18;4.18;;;;;;;13.17;69.97;96894.22;5026441;28;20049;-61
2023/06/14 05:33:15;;;;;;;7.22;4.20;;;;;;;13.44;66.29;96891.06;5026700;28;20068;-61
2023/06/14 05:35:41;;;;;;;7.07;4.45;;;;;;;13.72;64.58;96888.72;5035705;28;20107;-62
2023/06/14 05:38:08;;;;;;;7.30;4.40;;;;;;;13.95;63.22;96897.22;5031226;28;20517;-62
2023/06/14 05:40:34;;;;;;;7.05;4.35;;;;;;;14.22;61.99;96890.44;5036152;28;20033;-62
2023/06/14 05:43:01;;;;;;;8.90;4.57;;;;;;;14.33;61.47;96893.84;5035722;28;20173;-62
2023/06/14 05:45:27;;;;;;;10.32;4.43;;;;;;;14.46;61.08;96897.81;5033214;28;20136;-62
2023/06/14 05:47:54;;;;;;;8.05;4.72;;;;;;;14.59;60.49;96899.03;5031908;28;20041;-61
2023/06/14 05:50:21;;;;;;;9.25;5.78;;;;;;;14.66;60.45;96899.50;5035132;28;20461;-61
2023/06/14 05:52:47;;;;;;;9.82;4.30;;;;;;;14.77;59.49;96902.94;5035944;28;20095;-63
2023/06/14 05:55:16;;;;;;;6.47;3.90;;;;;;;14.86;58.85;96899.56;5028563;28;20060;-63
2023/06/14 05:57:43;;;;;;;7.47;3.97;;;;;;;14.98;59.18;96902.69;5032656;28;20091;-61
2023/06/14 06:00:16;;;;;;;7.55;4.32;;;;;;;15.14;58.10;96903.28;5030228;28;20045;-62
2023/06/14 06:02:43;;;;;;;9.35;4.78;;;;;;;15.24;57.62;96907.00;5031869;28;20036;-61
2023/06/14 06:05:13;;;;;;;7.68;4.90;;;;;;;15.29;56.86;96904.22;5035200;28;20048;-62
2023/06/14 06:07:41;;;;;;;6.93;4.03;;;;;;;15.31;57.48;96912.91;5034243;28;20041;-62
2023/06/14 06:10:08;;;;;;;9.25;4.57;;;;;;;15.38;56.96;96907.06;5034177;28;20037;-61
2023/06/14 06:12:34;;;;;;;6.18;4.20;;;;;;;15.40;56.82;96913.84;5031991;28;20041;-61
2023/06/14 06:15:01;;;;;;;7.00;4.38;;;;;;;15.42;56.52;96917.09;5029036;28;20460;-62
2023/06/14 06:17:27;;;;;;;6.63;4.35;;;;;;;15.52;56.34;96915.34;5029256;28;20247;-61
2023/06/14 06:20:12;;;;;;;6.80;5.22;;;;;;;15.62;57.24;96920.63;5035774;28;20047;-62
2023/06/14 06:22:39;;;;;;;10.27;4.63;;;;;;;15.69;57.42;96918.34;5031704;28;20042;-62
2023/06/14 06:25:06;;;;;;;8.23;4.80;;;;;;;15.74;57.11;96912.00;5035318;28;20143;-61
2023/06/14 06:27:33;;;;;;;6.95;4.90;;;;;;;15.72;56.56;96925.13;5035530;28;20203;-63
2023/06/14 06:29:59;;;;;;;6.60;4.50;;;;;;;15.77;55.93;96921.50;5028134;28;20048;-61
2023/06/14 06:32:26;;;;;;;7.15;4.57;;;;;;;15.68;56.31;96918.63;5032113;28;20055;-62
2023/06/14 06:34:52;;;;;;;8.98;4.35;;;;;;;15.79;57.01;96930.19;5028618;28;20052;-62
2023/06/14 06:37:19;;;;;;;6.57;4.30;;;;;;;15.95;56.55;96925.34;5036482;28;20052;-61
2023/06/14 06:39:46;;;;;;;7.20;4.40;;;;;;;15.95;56.34;96920.69;5030893;28;20049;-62
2023/06/14 06:42:12;;;;;;;8.05;4.82;;;;;;;15.98;57.49;96920.09;5027940;28;20045;-62
2023/06/14 06:44:41;;;;;;;6.95;4.47;;;;;;;16.09;56.80;96919.91;5028285;28;20072;-62
2023/06/14 06:47:09;;;;;;;6.57;4.28;;;;;;;16.20;56.26;96921.38;5024817;28;20132;-62
2023/06/14 06:49:36;;;;;;;12.82;4.60;;;;;;;16.36;55.86;96926.53;5037614;28;20565;-62
2023/06/14 06:52:05;;;;;;;5.93;4.30;;;;;;;16.46;54.70;96925.56;5029699;28;20042;-62
2023/06/14 06:54:32;;;;;;;9.18;4.75;;;;;;;16.59;53.59;96930.22;5031830;28;20041;-63
2023/06/14 06:56:58;;;;;;;7.35;4.57;;;;;;;16.65;53.55;96939.16;5026184;28;20594;-62
2023/06/14 06:59:25;;;;;;;10.25;4.72;;;;;;;16.64;53.15;96937.53;5031559;28;20492;-61
2023/06/14 07:01:52;;;;;;;8.85;5.30;;;;;;;16.68;53.98;96944.00;5028298;28;20120;-62
2023/06/14 07:04:20;;;;;;;6.55;4.60;;;;;;;16.69;53.88;96945.63;5034620;28;20036;-62
2023/06/14 07:06:47;;;;;;;8.32;4.15;;;;;;;16.75;53.46;96946.34;5028058;28;20037;-62
2023/06/14 07:09:15;;;;;;;6.95;4.30;;;;;;;16.81;53.42;96950.59;5034356;28;20112;-62
2023/06/14 07:11:45;;;;;;;8.93;4.70;;;;;;;16.83;53.40;96945.63;5026445;28;20037;-62
2023/06/14 07:14:12;;;;;;;7.32;4.18;;;;;;;16.85;53.24;96948.88;5023577;28;20045;-61
2023/06/14 07:16:39;;;;;;;7.57;4.18;;;;;;;16.90;52.45;96946.06;5035853;28;20048;-61
2023/06/14 07:19:05;;;;;;;7.40;4.65;;;;;;;16.95;52.38;96952.53;5028181;28;20030;-62
2023/06/14 07:21:32;;;;;;;11.30;4.45;;;;;;;17.00;52.30;96952.44;5031347;28;20492;-62
2023/06/14 07:23:59;;;;;;;7.00;4.55;;;;;;;17.26;52.56;96960.94;5028660;28;20056;-62
2023/06/14 07:26:26;;;;;;;7.78;4.60;;;;;;;17.35;51.95;96961.03;5032565;28;20045;-62
2023/06/14 07:28:52;;;;;;;9.35;4.30;;;;;;;17.45;51.55;96965.47;5031311;28;20041;-62
2023/06/14 07:31:19;;;;;;;7.40;4.25;;;;;;;17.48;51.26;96970.34;5028330;28;20045;-62
2023/06/14 07:33:45;;;;;;;6.70;3.95;;;;;;;17.55;50.33;96975.41;5030883;28;20128;-62
2023/06/14 07:36:12;;;;;;;8.68;4.68;;;;;;;17.45;50.62;96976.41;5030955;28;20050;-62
2023/06/14 07:38:40;;;;;;;6.38;4.03;;;;;;;17.55;51.63;96975.41;5025235;28;20060;-62
2023/06/14 07:41:07;;;;;;;5.78;4.32;;;;;;;17.54;50.29;96982.78;5029325;28;20041;-62
2023/06/14 07:43:34;;;;;;;8.07;3.97;;;;;;;17.70;50.01;96978.91;5026536;28;20042;-62
2023/06/14 07:46:01;;;;;;;7.30;4.30;;;;;;;17.79;49.94;96983.34;5025637;28;20384;-62
2023/06/14 07:48:33;;;;;;;7.50;4.32;;;;;;;17.90;50.55;96978.44;5024783;28;20049;-62
2023/06/14 07:51:01;;;;;;;8.65;4.18;;;;;;;18.01;49.39;96976.25;5028439;28;20048;-62
2023/06/14 07:53:28;;;;;;;7.88;5.03;;;;;;;18.14;49.68;96982.03;5024646;28;20049;-62
2023/06/14 07:55:55;;;;;;;6.63;4.05;;;;;;;18.17;49.20;96982.19;5029622;28;20041;-61
2023/06/14 07:58:21;;;;;;;7.32;4.35;;;;;;;18.25;47.94;96980.66;5027486;28;20041;-62
2023/06/14 08:00:48;;;;;;;9.65;4.22;;;;;;;18.25;48.76;96988.88;5029993;28;20144;-62
2023/06/14 08:03:14;;;;;;;8.38;4.18;;;;;;;18.23;48.44;96979.31;5026967;28;20288;-62
2023/06/14 08:05:41;;;;;;;13.30;4.88;;;;;;;18.22;49.23;96980.47;5031958;28;20041;-63
2023/06/14 08:08:08;;;;;;;8.18;4.35;;;;;;;18.19;49.61;96990.09;5027349;28;20051;-62
2023/06/14 08:10:34;;;;;;;6.70;4.63;;;;;;;18.26;49.91;96984.19;5033561;28;20040;-61
2023/06/14 08:13:01;;;;;;;8.32;4.65;;;;;;;18.50;49.07;96983.84;5030413;28;20073;-62
2023/06/14 08:15:28;;;;;;;7.13;4.60;;;;;;;18.65;48.44;96987.34;5030846;28;20052;-63
2023/06/14 08:17:55;;;;;;;10.52;4.68;;;;;;;18.76;47.36;96990.63;5030050;28;20045;-63
2023/06/14 08:20:21;;;;;;;9.60;4.80;;;;;;;18.65;48.33;96985.38;5032514;28;20569;-62
2023/06/14 08:22:48;;;;;;;9.27;4.38;;;;;;;18.70;48.85;96981.72;5030248;28;20275;-62
2023/06/14 08:25:15;;;;;;;6.40;4.70;;;;;;;18.74;48.70;96990.94;5031088;28;20052;-62
2023/06/14 08:27:42;;;;;;;9.27;5.25;;;;;;;18.81;49.21;96985.81;5032685;28;20046;-62
2023/06/14 08:30:09;;;;;;;8.85;4.93;;;;;;;19.00;48.46;96990.22;5031672;28;20045;-62
2023/06/14 08:32:36;;;;;;;7.57;5.22;;;;;;;18.89;48.11;96997.94;5037649;28;20064;-62
2023/06/14 08:35:05;;;;;;;7.32;4.53;;;;;;;18.93;48.51;96990.69;5028506;28;20041;-62
2023/06/14 08:37:33;;;;;;;8.48;4.38;;;;;;;19.17;47.31;96992.25;5025574;28;20037;-62
2023/06/14 08:40:00;;;;;;;9.35;4.40;;;;;;;19.29;46.41;96986.16;5027657;28;20038;-62
2023/06/14 08:42:28;;;;;;;9.02;4.40;;;;;;;19.36;46.95;96993.94;5031107;28;20045;-62
2023/06/14 08:44:59;;;;;;;7.93;4.93;;;;;;;19.58;47.77;96993.00;5026691;28;20079;-61
2023/06/14 08:47:29;;;;;;;6.70;5.03;;;;;;;19.52;46.93;96997.03;5031917;28;20038;-61
2023/06/14 08:49:58;;;;;;;6.88;4.47;;;;;;;19.61;46.07;97002.53;5025860;28;20443;-62
2023/06/14 08:52:30;;;;;;;6.50;4.80;;;;;;;19.72;45.63;97006.59;5031193;28;20041;-62
2023/06/14 08:54:57;;;;;;;6.47;4.43;;;;;;;19.52;45.05;97008.00;5037111;28;20045;-62
2023/06/14 08:57:25;;;;;;;7.50;3.75;;;;;;;19.42;45.54;97000.09;5028720;28;20049;-62
2023/06/14 08:59:53;;;;;;;7.03;4.80;;;;;;;19.65;46.07;97002.69;5031486;28;20049;-62
2023/06/14 09:02:22;;;;;;;8.07;4.63;;;;;;;19.86;45.83;97008.38;5027579;28;20699;-62
2023/06/14 09:04:51;;;;;;;8.73;4.30;;;;;;;20.00;45.37;97005.50;5031853;28;20459;-62
2023/06/14 09:07:18;;;;;;;6.75;4.43;;;;;;;20.06;45.42;97003.41;5034861;28;20056;-62
2023/06/14 09:09:44;;;;;;;12.00;5.07;;;;;;;20.00;45.42;97000.81;5028914;28;20758;-62
2023/06/14 09:12:31;;;;;;;8.25;4.40;;;;;;;20.07;45.44;97011.31;5024308;28;20300;-62
2023/06/14 09:14:57;;;;;;;9.43;4.75;;;;;;;19.87;45.40;97012.75;5027950;28;20041;-62
2023/06/14 09:17:24;;;;;;;9.63;4.60;;;;;;;19.68;45.45;97008.34;5030356;28;20052;-62
2023/06/14 09:19:51;;;;;;;7.40;4.05;;;;;;;19.69;46.25;96998.19;5027610;28;20057;-62
2023/06/14 09:22:17;;;;;;;8.80;4.03;;;;;;;19.92;45.73;97004.34;5029967;28;20640;-63
2023/06/14 09:24:44;;;;;;;15.43;5.65;;;;;;;20.04;45.64;97003.72;5030059;28;20060;-62
2023/06/14 09:27:15;;;;;;;9.02;4.60;;;;;;;20.09;44.86;97003.56;5029814;28;20128;-61
2023/06/14 09:29:41;;;;;;;9.15;5.03;;;;;;;20.11;45.12;97005.97;5029793;28;20550;-62
2023/06/14 09:32:09;;;;;;;7.97;4.40;;;;;;;20.20;44.58;97009.53;5026463;28;20127;-62
2023/06/14 09:34:36;;;;;;;8.45;4.13;;;;;;;20.32;44.93;97003.41;5027527;28;20617;-62
2023/06/14 09:37:02;;;;;;;9.07;3.83;;;;;;;20.66;44.17;97015.47;5035051;28;20045;-65
2023/06/14 09:39:29;;;;;;;8.70;3.78;;;;;;;20.82;43.62;97012.16;5029805;28;20099;-62
2023/06/14 09:41:56;;;;;;;5.40;3.75;;;;;;;20.85;42.37;97022.53;5031627;28;20049;-62
2023/06/14 09:44:28;;;;;;;8.00;3.42;;;;;;;20.77;42.08;97017.84;5031869;28;20042;-62
2023/06/14 09:46:55;;;;;;;7.68;4.20;;;;;;;20.62;43.14;97020.00;5032976;28;20071;-62
2023/06/14 09:49:22;;;;;;;7.32;3.90;;;;;;;20.57;43.91;97017.44;5034475;28;20232;-63
2023/06/14 09:51:52;;;;;;;7.18;4.50;;;;;;;20.59;43.53;97006.91;5033788;28;20037;-62
2023/06/14 09:54:23;;;;;;;5.80;3.90;;;;;;;20.49;43.94;97010.00;5027896;28;20120;-62
2023/06/14 09:56:51;;;;;;;7.05;4.22;;;;;;;20.69;42.49;97007.69;5026148;28;20053;-62
2023/06/14 09:59:26;;;;;;;10.60;3.80;;;;;;;20.85;40.74;97016.19;5031674;28;20052;-62
2023/06/14 10:01:58;;;;;;;7.00;3.63;;;;;;;20.87;41.07;97012.03;5027138;28;20041;-61
2023/06/14 10:04:26;;;;;;;6.63;3.60;;;;;;;20.89;41.58;97012.50;5028858;28;20046;-62
2023/06/14 10:06:53;;;;;;;6.55;4.15;;;;;;;21.00;40.84;97014.88;5032276;28;20052;-62
2023/06/14 10:09:22;;;;;;;8.23;3.90;;;;;;;20.98;40.60;97012.50;5031530;28;20041;-62
2023/06/14 10:11:50;;;;;;;11.27;4.15;;;;;;;20.90;40.70;97011.38;5027086;28;20033;-61
2023/06/14 10:14:18;;;;;;;6.80;3.60;;;;;;;21.05;38.71;97004.50;5035163;28;20700;-62
2023/06/14 10:17:08;;;;;;;5.05;3.50;;;;;;;21.17;39.48;97009.34;5030712;28;20489;-62
2023/06/14 10:19:48;;;;;;;8.10;3.30;;;;;;;21.35;40.21;97003.75;5035838;28;20555;-61
2023/06/14 10:22:23;;;;;;;6.70;3.88;;;;;;;21.27;39.56;97005.38;5033105;28;20049;-62
2023/06/14 10:24:50;;;;;;;6.45;3.70;;;;;;;21.18;39.64;97010.13;5029810;28;20067;-62
2023/06/14 10:27:18;;;;;;;7.70;3.97;;;;;;;21.04;38.92;97008.41;5028774;28;20041;-62
2023/06/14 10:29:53;;;;;;;5.93;3.47;;;;;;;21.09;38.87;96998.34;5032599;28;20041;-62
2023/06/14 10:32:24;;;;;;;4.43;3.13;;;;;;;21.20;37.93;97004.28;5033953;28;20053;-62
2023/06/14 10:34:56;;;;;;;;;;;;;;;21.42;36.85;96995.75;5034778;28;20040;-62
2023/06/14 10:37:24;;;;;;;5.10;3.20;;;;;;;21.75;35.23;96994.28;5029970;28;19990;-63
2023/06/14 10:39:50;;;;;;;6.13;3.10;;;;;;;21.90;35.37;97001.16;5028444;28;20037;-63
2023/06/14 10:42:17;;;;;;;8.43;2.83;;;;;;;21.82;34.62;96991.78;5030088;28;20261;-62
2023/06/14 10:45:04;;;;;;;9.77;3.90;;;;;;;21.93;33.78;96996.91;5032547;28;20048;-61
2023/06/14 10:47:35;;;;;;;8.38;3.63;;;;;;;21.88;33.72;96997.09;5022723;28;20631;-62
2023/06/14 10:50:02;;;;;;;8.65;3.58;;;;;;;21.93;32.90;97003.22;5034176;28;20500;-63
2023/06/14 10:52:29;;;;;;;5.75;3.28;;;;;;;21.95;33.54;97000.13;5033793;28;20099;-62
2023/06/14 10:54:59;;;;;;;6.50;3.00;;;;;;;21.97;33.76;97000.59;5026059;28;20044;-62
2023/06/14 10:57:26;;;;;;;7.43;2.88;;;;;;;22.00;33.11;97002.66;5032188;28;20033;-62
2023/06/14 10:59:53;;;;;;;6.00;3.10;;;;;;;21.92;33.27;97011.81;5031365;28;20123;-62
2023/06/14 11:02:19;;;;;;;6.13;3.15;;;;;;;21.63;32.42;97019.75;5030845;28;20520;-62
2023/06/14 11:04:51;;;;;;;6.28;3.50;;;;;;;21.07;34.17;97014.41;5029802;28;20045;-62
2023/06/14 11:07:30;;;;;;;6.65;3.10;;;;;;;21.36;36.07;97002.59;5029856;28;20172;-62
2023/06/14 11:10:28;;;;;;;5.65;2.90;;;;;;;21.64;36.53;96990.28;5031145;28;20048;-62
2023/06/14 11:12:56;;;;;;;8.00;2.85;;;;;;;22.06;34.53;96995.00;5025921;28;20049;-62
2023/06/14 11:15:30;;;;;;;5.55;3.03;;;;;;;22.35;34.87;96988.59;5032948;28;20056;-61
2023/06/14 11:17:57;;;;;;;7.07;3.30;;;;;;;22.26;33.86;96993.38;5034343;28;20066;-62
2023/06/14 11:20:25;;;;;;;5.03;3.30;;;;;;;22.18;33.30;96995.06;5027256;28;20128;-61
2023/06/14 11:22:53;;;;;;;8.38;3.35;;;;;;;22.11;33.51;97000.31;5029095;28;20052;-62
2023/06/14 11:25:20;;;;;;;7.38;2.95;;;;;;;21.96;33.28;97002.53;5035104;28;20496;-62
2023/06/14 11:27:50;;;;;;;4.78;2.70;;;;;;;22.15;33.21;97009.53;5027829;28;20037;-62
2023/06/14 11:30:17;;;;;;;5.38;2.80;;;;;;;22.09;33.86;97000.69;5032698;28;20489;-61
2023/06/14 11:32:48;;;;;;;5.80;3.08;;;;;;;22.27;33.32;96999.69;5028689;28;20052;-61
2023/06/14 11:35:15;;;;;;;6.13;3.28;;;;;;;22.28;33.08;97004.88;5032835;28;20124;-61
2023/06/14 11:37:44;;;;;;;5.72;2.70;;;;;;;22.52;34.33;96997.03;5034361;28;20064;-61
2023/06/14 11:40:12;;;;;;;8.70;3.80;;;;;;;22.69;33.47;97002.41;5030503;28;20069;-62
2023/06/14 11:42:40;;;;;;;6.45;3.15;;;;;;;22.62;33.27;97002.13;5024945;28;20511;-62
2023/06/14 11:45:11;;;;;;;7.28;3.67;;;;;;;22.12;35.09;96998.38;5032827;28;20515;-62
2023/06/14 11:47:39;;;;;;;;;;;;;;;21.98;34.92;96993.13;5034470;28;20042;-61
2023/06/14 11:50:10;;;;;;;6.10;3.33;;;;;;;22.37;34.24;96998.47;5027402;28;19921;-61